Weather observations for the past three days for
Kennett - Kennett Memorial Airport
Imperial (Metric)
Date Time (cdt) Wind (mph) Vis. (mi.) Weather Sky Cond. Temperature (ºF) Relative Humidity Wind Chill (°F) Heat Index (°F) Pressure Precipitation (in)
Air Dwpt 6 hour altimeter (in) sea level (mb) 1 hr 3 hr 6 hr
Max. Min.
03 11:55 Vrbl 7 10.00 Fair CLR 96.8 75.2 50% 110 30 0.0
03 11:35 Vrbl 5 10.00 Fair CLR 96.8 75.2 50% 110 30 0.0
03 11:15 Vrbl 5 10.00 Fair CLR 96.8 77 53% 112 30 0.0
03 10:55 SW 5 10.00 Fair CLR 95 77 56% 110 30.01 0.0
03 10:35 SW 6 10.00 Fair CLR 93.2 77 59% 107 30.01 0.0
03 10:15 Calm 10.00 Fair CLR 93.2 78.8 63% 110 30.01 0.0
03 09:55 Calm 10.00 Fair CLR 91.4 80.6 71% 111 30 0.0
03 09:35 Calm 10.00 Fair CLR 89.6 80.6 75% 108 30 0.0
03 09:15 Calm 10.00 Fair CLR 86 82.4 89% 105 30.01 0.0
03 08:55 SW 5 10.00 Fair CLR 86 80.6 84% 102 30.01 0.0
03 08:35 SW 5 10.00 Fair CLR 84.2 80.6 89% 98 30.01 0.0
03 08:15 SW 5 10.00 Fair CLR 82.4 78.8 89% 92 30.01 0.0
03 07:35 Calm 10.00 Fair CLR 77 77 100% 78 30.01 0.0
03 07:15 Calm 10.00 Fair CLR 75.2 75.2 100% 73 30.01 0.0
03 06:55 Calm 10.00 Fair CLR 75.2 75.2 100% 73 30 0.0
03 06:35 Calm 10.00 A Few Clouds FEW120 73.4 73.4 100% 29.99 0.0
03 06:15 Calm 10.00 Partly Cloudy SCT120 75.2 75.2 100% 73 29.99 0.0
03 05:55 Calm 10.00 Fair CLR 75.2 75.2 100% 73 29.99 0.0
03 05:35 Calm 10.00 Fair CLR 75.2 75.2 100% 73 29.98 0.0
03 05:15 Calm 10.00 Fair CLR 75.2 75.2 100% 73 29.98 0.0
03 04:55 Calm 10.00 Fair CLR 75.2 75.2 100% 73 29.98 0.0
03 04:35 S 3 10.00 Fair CLR 75.2 75.2 100% 73 29.98 0.0
03 04:15 Calm 10.00 Fair CLR 75.2 75.2 100% 73 29.98 0.0
03 03:55 Calm 10.00 Fair CLR 77 77 100% 78 29.98 0.0
03 03:35 Calm 10.00 Fair CLR 77 77 100% 78 29.97 0.0
03 03:15 Calm 10.00 Fair CLR 77 77 100% 78 29.97 0.0
03 02:55 Calm 10.00 Fair CLR 77 77 100% 78 29.96 0.0
03 02:35 Calm 10.00 Fair CLR 77 77 100% 78 29.97 0.0
03 02:15 SE 3 10.00 Fair CLR 77 77 100% 78 29.97 0.0
03 01:55 SE 6 10.00 Fair CLR 77 77 100% 78 29.97 0.0
03 01:35 SE 3 10.00 Fair CLR 77 77 100% 78 29.97 0.0
03 01:15 Calm 10.00 Fair CLR 77 77 100% 78 29.97 0.0
03 00:55 Calm 10.00 Fair CLR 78.8 78.8 100% 83 29.97 0.0
03 00:35 Calm 10.00 Fair CLR 80.6 78.8 94% 88 29.97 0.0
03 00:15 Calm 10.00 Fair CLR 78.8 78.8 100% 83 29.97 0.0
02 23:55 E 6 10.00 Fair CLR 78.8 78.8 100% 83 29.97 0.0
02 23:35 Calm 10.00 Fair CLR 78.8 78.8 100% 83 29.97 0.0
02 23:15 Calm 10.00 Fair CLR 78.8 78.8 100% 83 29.97 0.0
02 22:55 Calm 10.00 Fair CLR 78.8 78.8 100% 83 29.97 0.0
02 22:35 Calm 10.00 Fair CLR 80.6 80.6 100% 89 29.97 0.0
02 22:15 Calm 10.00 Fair CLR 80.6 78.8 94% 88 29.97 0.0
02 21:55 Calm 10.00 Fair CLR 80.6 78.8 94% 88 29.98 0.0
02 21:35 Calm 10.00 Fair CLR 82.4 80.6 94% 94 29.97 0.0
02 20:55 Calm 10.00 Fair CLR 82.4 80.6 94% 94 29.96 0.0
02 20:35 E 3 10.00 Fair CLR 82.4 82.4 100% 96 29.95 0.0
02 20:15 SE 3 10.00 Fair CLR 84.2 80.6 89% 98 29.95 0.0
02 19:55 Calm 10.00 Fair CLR 86 78.8 79% 99 29.94 0.0
02 19:35 S 3 10.00 Fair CLR 87.8 75.2 66% 98 29.94 0.0
02 19:15 Calm 10.00 Fair CLR 91.4 73.4 56% 100 29.94 0.0
02 18:55 S 3 10.00 Fair CLR 93.2 73.4 53% 103 29.95 0.0
02 18:35 SW 5 10.00 Fair CLR 95 71.6 47% 103 29.95 0.0
02 18:15 SW 6 10.00 Fair CLR 96.8 69.8 42% 103 29.95 0.0
02 17:55 S 6 10.00 Fair CLR 98.6 69.8 39% 106 29.95 0.0
02 17:35 S 8 10.00 Fair CLR 98.6 69.8 39% 106 29.95 0.0
02 16:55 S 8 G 15 10.00 Fair CLR 100.4 69.8 37% 108 29.95 0.0
02 16:35 Vrbl 7 G 14 10.00 Fair CLR 100.4 68 35% 106 29.96 0.0
02 16:15 S 9 G 15 10.00 Fair CLR 100.4 69.8 37% 108 29.96 0.0
02 15:55 Vrbl 7 G 17 10.00 Fair CLR 100.4 69.8 37% 108 29.97 0.0
02 15:35 S 8 G 16 10.00 Fair CLR 100.4 69.8 37% 108 29.97 0.0
02 15:15 SW 9 G 16 10.00 Fair CLR 100.4 69.8 37% 108 29.98 0.0
02 14:55 Vrbl 7 10.00 Fair CLR 100.4 69.8 37% 108 29.99 0.0
02 14:35 S 10 G 16 10.00 Fair CLR 100.4 68 35% 106 29.99 0.0
02 14:15 SW 12 10.00 Fair CLR 100.4 69.8 37% 108 30 0.0
02 13:55 SW 9 10.00 Fair CLR 100.4 69.8 37% 108 30.01 0.0
02 13:35 S 8 10.00 Fair CLR 98.6 69.8 39% 106 30.01 0.0
02 13:15 Vrbl 8 G 14 10.00 Fair CLR 98.6 69.8 39% 106 30.02 0.0
02 12:55 Vrbl 7 G 13 10.00 Fair CLR 98.6 68 37% 104 30.02 0.0
02 12:35 Vrbl 5 G 14 10.00 Fair CLR 98.6 69.8 39% 106 30.03 0.0
02 12:15 Vrbl 6 10.00 Fair CLR 98.6 71.6 42% 108 30.04 0.0
02 11:55 S 8 10.00 Fair CLR 96.8 73.4 47% 107 30.05 0.0
02 11:35 S 7 10.00 Fair CLR 96.8 73.4 47% 107 30.05 0.0
02 11:15 Vrbl 6 10.00 Fair CLR 95 75.2 53% 107 30.05 0.0
02 10:55 Vrbl 6 10.00 Fair CLR 95 78.8 60% 113 30.06 0.0
02 10:35 Calm 10.00 Fair CLR 93.2 80.6 67% 113 30.06 0.0
02 10:15 Vrbl 5 10.00 Fair CLR 91.4 80.6 71% 111 30.06 0.0
02 09:55 SW 7 10.00 Fair CLR 89.6 80.6 75% 108 30.06 0.0
02 09:35 SW 8 10.00 Fair CLR 89.6 80.6 75% 108 30.06 0.0
02 09:15 SW 7 10.00 Fair CLR 87.8 80.6 79% 105 30.06 0.0
02 08:55 SW 6 10.00 Fair CLR 86 80.6 84% 102 30.06 0.0
02 08:35 SW 3 10.00 Fair CLR 84.2 80.6 89% 98 30.06 0.0
02 08:15 SW 5 10.00 Fair CLR 82.4 80.6 94% 94 30.06 0.0
02 07:55 Calm 10.00 Fair CLR 80.6 80.6 100% 89 30.06 0.0
02 07:35 Calm 10.00 Fair CLR 77 77 100% 78 30.05 0.0
02 07:15 Calm 10.00 Fair CLR 73.4 73.4 100% 30.05 0.0
02 06:35 Calm 10.00 Fair CLR 73.4 73.4 100% 30.04 0.0
02 06:15 Calm 10.00 Fair CLR 73.4 73.4 100% 30.03 0.0
02 05:55 Calm 9.00 Fair CLR 73.4 73.4 100% 30.03 0.0
02 05:35 Calm 10.00 Fair CLR 73.4 73.4 100% 30.02 0.0
02 05:15 Calm 10.00 Fair CLR 73.4 73.4 100% 30.02 0.0
02 04:55 Calm 10.00 Fair CLR 75.2 75.2 100% 73 30.02 0.0
02 04:35 Calm 10.00 Fair CLR 75.2 75.2 100% 73 30.02 0.0
02 04:15 SE 3 10.00 Fair CLR 75.2 75.2 100% 73 30.02 0.0
02 03:55 Calm 10.00 Fair CLR 75.2 75.2 100% 73 30.01 0.0
02 03:35 Calm 10.00 Fair CLR 75.2 75.2 100% 73 30.01 0.0
02 03:15 Calm 10.00 Fair CLR 75.2 75.2 100% 73 30.01 0.0
02 02:55 Calm 10.00 Fair CLR 77 77 100% 78 30.01 0.0
02 02:15 Calm 10.00 Fair CLR 77 77 100% 78 30.02 0.0
02 01:55 Calm 10.00 Fair CLR 77 77 100% 78 30.02 0.0
02 01:35 Calm 10.00 Fair CLR 77 77 100% 78 30.02 0.0
02 01:15 Calm 10.00 Fair CLR 77 77 100% 78 30.01 0.0
02 00:55 Calm 10.00 Fair CLR 77 77 100% 78 30.02 0.0
02 00:35 Calm 10.00 Fair CLR 78.8 78.8 100% 83 30.01 0.0
02 00:15 Calm 10.00 Fair CLR 78.8 78.8 100% 83 30.01 0.0
01 23:55 Calm 10.00 Fair CLR 80.6 80.6 100% 89 30 0.0
01 23:35 SE 5 10.00 Fair CLR 80.6 80.6 100% 89 30 0.0
01 23:15 SE 7 10.00 Fair CLR 80.6 80.6 100% 89 30 0.0
01 22:55 SE 6 10.00 Fair CLR 80.6 80.6 100% 89 30 0.0
01 22:35 Calm 10.00 Fair CLR 80.6 80.6 100% 89 30 0.0
01 22:15 Calm 10.00 Fair CLR 80.6 80.6 100% 89 30 0.0
01 21:55 SE 3 10.00 Fair CLR 80.6 80.6 100% 89 30 0.0
01 21:35 Calm 10.00 Fair CLR 82.4 82.4 100% 96 29.99 0.0
01 21:15 Calm 10.00 Fair CLR 82.4 80.6 94% 94 30 0.0
01 20:55 Calm 10.00 Fair CLR 84.2 80.6 89% 98 29.99 0.0
01 20:35 E 7 10.00 Fair CLR 84.2 80.6 89% 98 29.99 0.0
01 20:15 E 7 10.00 Fair CLR 86 80.6 84% 102 29.98 0.0
01 19:55 Calm 10.00 Fair CLR 86 78.8 79% 99 29.98 0.0
01 19:35 Calm 10.00 Fair CLR 87.8 80.6 79% 105 29.98 0.0
01 18:55 SE 5 10.00 Fair CLR 93.2 75.2 56% 105 29.98 0.0
01 18:35 Calm 10.00 Fair CLR 95 73.4 50% 105 29.98 0.0
01 18:15 Calm 10.00 Fair CLR 96.8 71.6 44% 105 29.99 0.0
01 17:55 S 5 10.00 Fair CLR 96.8 71.6 44% 105 29.98 0.0
01 17:35 S 6 10.00 Fair CLR 96.8 71.6 44% 105 29.98 0.0
01 17:15 S 7 10.00 Fair CLR 96.8 71.6 44% 105 29.98 0.0
01 16:55 SW 9 10.00 Fair CLR 98.6 69.8 39% 106 29.98 0.0
01 16:35 SW 8 10.00 Fair CLR 98.6 69.8 39% 106 29.99 0.0
01 16:15 S 8 10.00 Fair CLR 98.6 68 37% 104 29.99 0.0
01 15:55 S 10 10.00 Fair CLR 100.4 68 35% 106 29.99 0.0
01 15:35 S 6 10.00 Fair CLR 100.4 69.8 37% 108 30 0.0
01 15:15 Vrbl 6 G 13 10.00 Fair CLR 98.6 69.8 39% 106 30 0.0
01 14:55 Calm 10.00 Fair CLR 98.6 69.8 39% 106 30.01 0.0
01 14:35 S 7 G 13 10.00 Fair CLR 98.6 71.6 42% 108 30.02 0.0
01 14:15 Calm 10.00 Fair CLR 98.6 71.6 42% 108 30.03 0.0
01 13:55 SW 7 10.00 Fair CLR 98.6 73.4 44% 110 30.03 0.0
01 13:35 S 6 G 12 10.00 Fair CLR 98.6 73.4 44% 110 30.04 0.0
01 13:15 SW 7 10.00 Fair CLR 98.6 71.6 42% 108 30.05 0.0
01 12:55 Vrbl 5 G 12 10.00 Fair CLR 96.8 71.6 44% 105 30.05 0.0
01 12:35 SW 7 10.00 Fair CLR 96.8 73.4 47% 107 30.06 0.0
01 12:15 SW 9 10.00 Fair CLR 96.8 73.4 47% 107 30.06 0.0
01 11:55 SW 8 10.00 Fair CLR 96.8 75.2 50% 110 30.07 0.0
01 11:35 SW 8 10.00 Fair CLR 95 75.2 53% 107 30.08 0.0
01 11:15 SW 7 10.00 Fair CLR 95 77 56% 110 30.08 0.0
01 10:55 SW 9 10.00 Fair CLR 93.2 78.8 63% 110 30.08 0.0
01 10:35 SW 8 10.00 Fair CLR 93.2 78.8 63% 110 30.08 0.0
01 10:15 SW 8 10.00 Fair CLR 91.4 78.8 67% 108 30.08 0.0
01 09:55 SW 9 10.00 Fair CLR 91.4 78.8 67% 108 30.08 0.0
01 09:35 Vrbl 6 10.00 Fair CLR 89.6 80.6 75% 108 30.08 0.0
01 09:15 S 6 10.00 Fair CLR 87.8 80.6 79% 105 30.08 0.0
01 08:55 SW 5 10.00 Fair CLR 86 80.6 84% 102 30.09 0.0
01 08:35 SW 5 10.00 Fair CLR 84.2 80.6 89% 98 30.08 0.0
01 08:15 Calm 10.00 Fair CLR 82.4 80.6 94% 94 30.08 0.0
01 07:55 Calm 10.00 Fair CLR 78.8 78.8 100% 83 30.09 0.0
01 07:35 Calm 10.00 Fair CLR 77 77 100% 78 30.08 0.0
01 07:15 Calm 10.00 Fair CLR 75.2 75.2 100% 73 30.08 0.0
01 06:55 S 7 10.00 Fair CLR 73.4 73.4 100% 30.07 0.0
01 06:35 SE 3 10.00 Fair CLR 71.6 71.6 100% 30.06 0.0
01 06:15 Calm 10.00 Fair CLR 73.4 73.4 100% 30.06 0.0
01 05:55 Calm 10.00 Fair CLR 73.4 73.4 100% 30.06 0.0
01 05:35 Calm 10.00 Fair CLR 73.4 73.4 100% 30.05 0.0
01 05:15 Calm 10.00 Fair CLR 73.4 73.4 100% 30.04 0.0
01 04:55 Calm 10.00 Fair CLR 75.2 75.2 100% 73 30.04 0.0
01 04:35 Calm 10.00 Fair CLR 75.2 75.2 100% 73 30.04 0.0
01 04:15 Calm 10.00 Fair CLR 75.2 75.2 100% 73 30.03 0.0
01 03:55 Calm 10.00 Fair CLR 75.2 75.2 100% 73 30.03 0.0
01 03:35 W 3 10.00 Fair CLR 75.2 75.2 100% 73 30.03 0.0
01 03:15 Calm 10.00 Fair CLR 75.2 75.2 100% 73 30.02 0.0
01 02:55 Calm 10.00 Fair CLR 75.2 75.2 100% 73 30.02 0.0
01 02:35 Calm 10.00 Fair CLR 75.2 75.2 100% 73 30.02 0.0
01 02:15 S 3 10.00 Fair CLR 75.2 75.2 100% 73 30.02 0.0
01 01:55 S 3 10.00 Fair CLR 75.2 75.2 100% 73 30.02 0.0
01 01:35 S 5 10.00 A Few Clouds FEW065 75.2 75.2 100% 73 30.02 0.0
01 01:15 SE 5 10.00 Fair CLR 77 77 100% 78 30.03 0.0
01 00:55 Calm 10.00 Fair CLR 77 77 100% 78 30.03 0.0
01 00:35 Calm 10.00 Fair CLR 77 77 100% 78 30.03 0.0
01 00:15 Calm 10.00 A Few Clouds FEW042 FEW060 77 77 100% 78 30.03 0.0
31 23:55 Calm 10.00 Mostly Cloudy SCT043 BKN050 BKN065 77 77 100% 78 30.03 0.0
31 23:35 Calm 10.00 Mostly Cloudy SCT048 BKN055 BKN060 77 77 100% 78 30.03 0.0
31 23:15 E 3 10.00 Mostly Cloudy BKN049 77 77 100% 78 30.02 0.0
31 22:55 Calm 10.00 Mostly Cloudy BKN047 BKN050 77 77 100% 78 30.03 0.0
31 22:35 E 3 10.00 Fair CLR 77 77 100% 78 30.02 0.0
31 22:15 Calm 10.00 Fair CLR 78.8 78.8 100% 83 30.02 0.0
31 21:55 Calm 10.00 Fair CLR 80.6 80.6 100% 89 30.02 0.0
31 21:35 Calm 10.00 Fair CLR 80.6 80.6 100% 89 30.02 0.0
31 21:15 Calm 10.00 Fair CLR 82.4 80.6 94% 94 30.02 0.0
31 20:55 Calm 10.00 Fair CLR 82.4 80.6 94% 94 30.01 0.0
31 20:35 Calm 10.00 Fair CLR 82.4 82.4 100% 96 30 0.0
31 20:15 E 3 10.00 Fair CLR 82.4 82.4 100% 96 29.99 0.0
31 19:55 Calm 10.00 Fair CLR 82.4 82.4 100% 96 29.99 0.0
31 19:35 Calm 10.00 Fair CLR 86 78.8 79% 99 29.98 0.0
31 19:15 Calm 10.00 Fair CLR 89.6 75.2 63% 100 29.98 0.0
31 18:55 Calm 10.00 Fair CLR 93.2 73.4 53% 103 29.98 0.0
31 18:35 SW 3 10.00 Fair CLR 95 71.6 47% 103 29.99 0.0
31 18:15 SW 7 10.00 Fair CLR 95 71.6 47% 103 29.99 0.0
31 17:55 S 6 10.00 Fair CLR 96.8 69.8 42% 103 29.99 0.0
31 17:35 S 8 10.00 Fair CLR 96.8 69.8 42% 103 30 0.0
31 17:15 S 7 10.00 Fair CLR 96.8 69.8 42% 103 30 0.0
31 16:55 S 6 10.00 Fair CLR 96.8 68 39% 102 30 0.0
31 16:35 S 8 10.00 Fair CLR 96.8 69.8 42% 103 30 0.0
31 16:15 SW 10 10.00 Fair CLR 96.8 68 39% 102 30.01 0.0
31 15:55 S 9 10.00 Fair CLR 96.8 69.8 42% 103 30.01 0.0
31 15:35 SW 9 10.00 Fair CLR 98.6 69.8 39% 106 30.02 0.0
31 15:15 S 9 10.00 Fair CLR 96.8 68 39% 102 30.02 0.0
31 14:55 SW 10 G 16 10.00 Fair CLR 96.8 69.8 42% 103 30.03 0.0
31 14:35 SW 10 10.00 Fair CLR 96.8 71.6 44% 105 30.04 0.0
31 14:15 S 9 G 16 10.00 Fair CLR 96.8 73.4 47% 107 30.04 0.0
31 13:55 Vrbl 7 10.00 Fair CLR 96.8 73.4 47% 107 30.05 0.0
31 13:35 SW 9 10.00 Fair CLR 95 73.4 50% 105 30.06 0.0
31 13:15 S 7 G 14 10.00 Fair CLR 95 73.4 50% 105 30.06 0.0
31 12:55 S 10 10.00 Fair CLR 95 75.2 53% 107 30.07 0.0
31 12:35 SW 7 10.00 Fair CLR 95 73.4 50% 105 30.07 0.0
31 12:15 SW 12 10.00 Fair CLR 95 73.4 50% 105 30.08 0.0
Date Time (cdt) Wind (mph) Vis. (mi.) Weather Sky Cond. Air Dwpt Max. Min. Relative Humidity Wind Chill (°F) Heat Index (°F) altimeter (in) sea level (mb) 1 hr 3 hr 6 hr
6 hour
Temperature (ºF) Pressure Precipitation (in)